Time;durP1;ratioP1;P1;durP2;ratioP2;P2;SDS_P1;SDS_P2;PMS_P1;PMS_P2;Temp;Humidity;BMP_temperature;BMP_pressure;BME280_temperature;BME280_humidity;BME280_pressure;Samples;Min_cycle;Max_cycle;Signal;HPM_P1;HPM_P2
2022/11/12 00:00:27;;;;;;;8.17;4.53;;;5.70;99.90;;;;;;5061777;28;20470;-83
2022/11/12 00:02:53;;;;;;;6.53;5.80;;;5.60;99.90;;;;;;5063819;28;20569;-82
2022/11/12 00:05:18;;;;;;;7.30;4.53;;;5.60;99.90;;;;;;5063585;28;20631;-82
2022/11/12 00:07:44;;;;;;;6.50;3.90;;;5.60;99.90;;;;;;5072532;28;20565;-83
2022/11/12 00:10:09;;;;;;;6.47;4.03;;;5.70;99.90;;;;;;5073122;28;20190;-83
2022/11/12 00:12:35;;;;;;;11.03;5.73;;;5.60;99.90;;;;;;5073197;28;20644;-83
2022/11/12 00:15:01;;;;;;;7.93;4.37;;;5.50;99.90;;;;;;5055059;28;20304;-84
2022/11/12 00:17:26;;;;;;;8.23;4.50;;;5.50;99.90;;;;;;5072908;28;20178;-83
2022/11/12 00:19:52;;;;;;;7.50;4.27;;;5.50;99.90;;;;;;5072886;28;20630;-81
2022/11/12 00:22:19;;;;;;;7.80;3.97;;;5.40;99.90;;;;;;5072917;28;20164;-81
2022/11/12 00:24:44;;;;;;;6.50;4.10;;;5.40;99.90;;;;;;5072430;28;20440;-81
2022/11/12 00:27:11;;;;;;;8.67;5.27;;;5.50;99.90;;;;;;5073030;28;20849;-81
2022/11/12 00:29:37;;;;;;;5.97;3.87;;;5.70;99.90;;;;;;5072743;28;20170;-82
2022/11/12 00:32:04;;;;;;;9.53;4.90;;;5.80;99.90;;;;;;5072756;28;20485;-81
2022/11/12 00:34:30;;;;;;;7.87;4.10;;;5.90;99.90;;;;;;5072562;28;20427;-81
2022/11/12 00:36:55;;;;;;;6.77;5.07;;;6.00;99.90;;;;;;5072794;28;20503;-81
2022/11/12 00:39:21;;;;;;;9.57;4.90;;;6.10;99.90;;;;;;5072263;28;20621;-83
2022/11/12 00:41:46;;;;;;;10.03;5.60;;;6.30;99.90;;;;;;5072567;28;20177;-84
2022/11/12 00:44:12;;;;;;;8.07;5.53;;;6.40;99.90;;;;;;5072695;28;20175;-84
2022/11/12 00:46:37;;;;;;;9.63;4.90;;;6.40;99.90;;;;;;5072702;28;20651;-84
2022/11/12 00:49:03;;;;;;;7.37;4.90;;;6.40;99.90;;;;;;5072414;28;20188;-84
2022/11/12 00:51:28;;;;;;;9.13;5.33;;;6.50;99.90;;;;;;5072384;28;20190;-87
2022/11/12 00:53:54;;;;;;;9.63;5.23;;;6.60;99.90;;;;;;5072315;28;20534;-83
2022/11/12 00:56:19;;;;;;;10.47;7.03;;;6.60;99.90;;;;;;5072532;28;20202;-84
2022/11/12 00:58:45;;;;;;;8.57;4.93;;;6.60;99.90;;;;;;5072212;28;20208;-88
2022/11/12 01:01:12;;;;;;;8.13;5.70;;;6.60;99.90;;;;;;5072869;28;20547;-83
2022/11/12 01:03:39;;;;;;;8.40;5.43;;;6.80;99.90;;;;;;5072884;28;20217;-91
2022/11/12 01:06:08;;;;;;;7.20;5.00;;;6.80;99.90;;;;;;5073425;28;20459;-85
2022/11/12 01:08:34;;;;;;;6.17;4.33;;;6.80;99.90;;;;;;5076149;28;20806;-85
2022/11/12 01:11:14;;;;;;;10.07;4.97;;;6.80;99.90;;;;;;5076846;28;20411;-83
2022/11/12 01:13:43;;;;;;;8.23;5.20;;;6.80;99.90;;;;;;5076600;28;20421;-87
2022/11/12 01:16:18;;;;;;;7.97;4.90;;;6.80;99.90;;;;;;5076492;28;20477;-89
2022/11/12 01:18:44;;;;;;;7.87;5.30;;;6.90;99.90;;;;;;5076712;28;20469;-86
2022/11/12 01:21:10;;;;;;;9.13;5.37;;;7.00;99.90;;;;;;5076356;28;20477;-85
2022/11/12 01:23:38;;;;;;;8.73;5.67;;;7.10;99.90;;;;;;5076108;28;20808;-86
2022/11/12 01:26:09;;;;;;;7.80;5.47;;;7.10;99.90;;;;;;5076532;28;20779;-82
2022/11/12 01:28:35;;;;;;;10.00;4.70;;;7.20;99.90;;;;;;5076264;28;20415;-88
2022/11/12 01:31:21;;;;;;;9.70;5.73;;;7.20;99.90;;;;;;5076237;28;20422;-82
2022/11/12 01:33:49;;;;;;;7.97;4.07;;;7.20;99.90;;;;;;5076116;28;20415;-81
2022/11/12 01:36:16;;;;;;;7.40;5.57;;;7.30;99.90;;;;;;5076163;28;20467;-83
2022/11/12 01:38:46;;;;;;;7.30;4.93;;;7.30;99.90;;;;;;5075779;28;20458;-84
2022/11/12 01:41:30;;;;;;;5.97;4.43;;;7.30;99.90;;;;;;5075950;28;20417;-86
2022/11/12 01:44:17;;;;;;;7.17;5.00;;;7.30;99.90;;;;;;5076004;28;20403;-83
2022/11/12 01:46:54;;;;;;;11.07;6.00;;;7.30;99.90;;;;;;5075979;28;20411;-90
2022/11/12 01:49:47;;;;;;;6.70;4.87;;;7.30;99.90;;;;;;5076093;28;20496;-85
2022/11/12 01:52:24;;;;;;;14.00;4.33;;;7.30;99.90;;;;;;5046785;28;20450;-87
2022/11/12 01:54:53;;;;;;;6.37;5.20;;;7.30;99.90;;;;;;5076065;28;20951;-88
2022/11/12 01:57:27;;;;;;;6.00;4.33;;;7.30;99.90;;;;;;5075897;28;20418;-87
2022/11/12 01:59:57;;;;;;;8.63;4.70;;;7.30;99.90;;;;;;5075827;28;20822;-88
2022/11/12 02:02:23;;;;;;;5.67;4.03;;;7.30;99.90;;;;;;5075636;28;20415;-86
2022/11/12 02:04:50;;;;;;;7.47;3.93;;;7.30;99.90;;;;;;5075764;28;20779;-89
2022/11/12 02:07:17;;;;;;;9.30;5.10;;;7.30;99.90;;;;;;5075227;28;20448;-86
2022/11/12 02:09:43;;;;;;;10.70;4.93;;;7.20;99.90;;;;;;5075601;28;20446;-85
2022/11/12 02:13:56;;;;;;;9.07;5.10;;;7.30;99.90;;;;;;5075339;28;20432;-87
2022/11/12 02:14:54;;;;;;;7.07;5.00;;;7.20;99.90;;;;;;5075048;28;20235;-84
2022/11/12 02:17:19;;;;;;;7.43;4.53;;;7.20;99.90;;;;;;5074801;28;20414;-85
2022/11/12 02:19:46;;;;;;;8.53;4.40;;;7.20;99.90;;;;;;5075004;28;20168;-85
2022/11/12 02:22:11;;;;;;;7.33;4.40;;;7.20;99.90;;;;;;5074939;28;20528;-84
2022/11/12 02:24:37;;;;;;;7.80;4.10;;;7.30;99.90;;;;;;5075229;28;20408;-84
2022/11/12 02:27:04;;;;;;;6.23;4.47;;;7.30;99.90;;;;;;5075114;28;20175;-84
2022/11/12 02:29:30;;;;;;;6.70;4.10;;;7.30;99.90;;;;;;5074991;28;20630;-85
2022/11/12 02:31:56;;;;;;;9.20;4.20;;;7.30;99.90;;;;;;5075068;28;20421;-84
2022/11/12 02:34:21;;;;;;;10.20;5.27;;;7.30;99.90;;;;;;5074977;28;20179;-84
2022/11/12 02:36:47;;;;;;;7.50;4.23;;;7.30;99.90;;;;;;5074771;28;20686;-85
2022/11/12 02:39:12;;;;;;;8.47;4.77;;;7.30;99.90;;;;;;5074611;28;20172;-85
2022/11/12 02:41:38;;;;;;;7.10;4.93;;;7.40;99.90;;;;;;5074779;28;20179;-84
2022/11/12 02:44:03;;;;;;;7.23;3.90;;;7.40;99.90;;;;;;5074801;28;20179;-86
2022/11/12 02:46:29;;;;;;;6.83;4.50;;;7.30;99.90;;;;;;5074779;28;20574;-86
2022/11/12 02:48:54;;;;;;;7.10;4.70;;;7.30;99.90;;;;;;5074908;28;20536;-89
2022/11/12 02:51:20;;;;;;;7.37;4.87;;;7.40;99.90;;;;;;5074797;28;20166;-83
2022/11/12 02:53:45;;;;;;;7.80;5.10;;;7.40;99.90;;;;;;5074463;28;20181;-85
2022/11/12 02:56:11;;;;;;;8.30;5.50;;;7.40;99.90;;;;;;5074695;28;20254;-86
2022/11/12 02:58:36;;;;;;;9.93;4.87;;;7.40;99.90;;;;;;5074712;28;20177;-88
2022/11/12 03:01:02;;;;;;;7.93;5.30;;;7.40;99.90;;;;;;5074390;28;20606;-88
2022/11/12 03:03:27;;;;;;;8.27;5.30;;;7.40;99.90;;;;;;5074224;28;20176;-85
2022/11/12 03:06:00;;;;;;;7.40;4.07;;;7.40;99.90;;;;;;5074347;28;20198;-88
2022/11/12 03:08:25;;;;;;;7.83;4.70;;;7.40;99.90;;;;;;5074066;28;20581;-87
2022/11/12 03:10:51;;;;;;;9.27;5.37;;;7.40;99.90;;;;;;5074480;28;20571;-86
2022/11/12 03:13:17;;;;;;;11.07;4.87;;;7.50;99.90;;;;;;5074391;28;20167;-85
2022/11/12 03:15:46;;;;;;;7.03;4.63;;;7.60;99.90;;;;;;5073949;28;20548;-83
2022/11/12 03:18:12;;;;;;;8.80;5.40;;;7.60;99.90;;;;;;5074205;28;20926;-87
2022/11/12 03:20:37;;;;;;;9.43;4.77;;;7.60;99.90;;;;;;5074218;28;20411;-87
2022/11/12 03:23:05;;;;;;;9.63;5.40;;;7.60;99.90;;;;;;5074022;28;20178;-88
2022/11/12 03:25:31;;;;;;;9.60;5.97;;;7.60;99.90;;;;;;5074173;28;20166;-88
2022/11/12 03:27:58;;;;;;;8.17;5.67;;;7.50;99.90;;;;;;5074091;28;20424;-88
2022/11/12 03:30:29;;;;;;;6.90;5.30;;;7.50;99.90;;;;;;5073296;28;20411;-84
2022/11/12 03:32:54;;;;;;;7.13;5.90;;;7.60;99.90;;;;;;5074300;28;20494;-88
2022/11/12 03:35:20;;;;;;;8.47;5.17;;;7.60;99.90;;;;;;5073929;28;20574;-89
2022/11/12 03:37:45;;;;;;;7.53;6.00;;;7.50;99.90;;;;;;5073809;28;20530;-89
2022/11/12 03:40:11;;;;;;;10.60;6.63;;;7.30;99.90;;;;;;5074489;28;20225;-90
2022/11/12 03:42:36;;;;;;;10.43;6.03;;;7.30;99.90;;;;;;5074660;28;20187;-90
2022/11/12 03:45:02;;;;;;;9.37;5.73;;;7.20;99.90;;;;;;5074775;28;20261;-88
2022/11/12 03:47:27;;;;;;;10.60;7.10;;;7.10;99.90;;;;;;5056773;28;20172;-90
2022/11/12 03:49:53;;;;;;;9.70;5.80;;;7.00;99.90;;;;;;5074567;28;20181;-91
2022/11/12 03:52:18;;;;;;;10.23;6.27;;;7.00;99.90;;;;;;5073438;28;20169;-84
2022/11/12 03:54:44;;;;;;;8.00;5.40;;;6.90;99.90;;;;;;5073523;28;20179;-86
2022/11/12 03:57:09;;;;;;;12.40;6.43;;;6.80;99.90;;;;;;5073494;28;20174;-85
2022/11/12 03:59:35;;;;;;;7.60;6.27;;;6.80;99.90;;;;;;5073197;28;20219;-84
2022/11/12 04:02:00;;;;;;;10.87;5.53;;;6.80;99.90;;;;;;5073463;28;20173;-87
2022/11/12 04:08:34;;;;;;;8.73;5.80;;;6.70;99.90;;;;;;5073292;28;20176;-85
2022/11/12 04:09:55;;;;;;;5.50;4.50;;;6.60;99.90;;;;;;5073201;28;20431;-88
2022/11/12 04:15:05;;;;;;;6.10;3.93;;;6.40;99.90;;;;;;5073127;28;20209;-86
2022/11/12 04:22:59;;;;;;;7.57;4.00;;;6.20;99.90;;;;;;5073370;28;20389;-88
2022/11/12 04:28:09;;;;;;;7.50;4.03;;;6.00;99.90;;;;;;5073336;28;20276;-87
2022/11/12 04:30:34;;;;;;;9.53;4.07;;;6.00;99.90;;;;;;5073179;28;20446;-86
2022/11/12 04:33:00;;;;;;;5.47;4.00;;;5.90;99.90;;;;;;5073164;28;20207;-88
2022/11/12 04:35:26;;;;;;;8.43;4.37;;;5.90;99.90;;;;;;5072867;28;20215;-88
2022/11/12 04:37:52;;;;;;;7.63;4.80;;;5.90;99.90;;;;;;5072721;28;20157;-88
2022/11/12 04:46:01;;;;;;;7.83;4.80;;;5.80;99.90;;;;;;5073933;28;20982;-84
2022/11/12 04:48:27;;;;;;;7.20;3.83;;;5.80;99.90;;;;;;5073438;28;20405;-86
2022/11/12 04:50:58;;;;;;;5.40;4.10;;;5.70;99.90;;;;;;5073442;28;20492;-86
2022/11/12 04:53:25;;;;;;;6.10;3.87;;;5.60;99.90;;;;;;5073345;28;20196;-85
2022/11/12 04:55:52;;;;;;;7.17;3.77;;;5.60;99.90;;;;;;5073604;28;21187;-92
2022/11/12 04:58:18;;;;;;;7.10;3.80;;;5.40;99.90;;;;;;5072161;28;20916;-82
2022/11/12 05:00:44;;;;;;;7.80;3.50;;;5.40;99.90;;;;;;5073770;28;20547;-90
2022/11/12 05:03:10;;;;;;;5.83;3.43;;;5.50;99.90;;;;;;5073153;28;20514;-88
2022/11/12 05:05:35;;;;;;;5.70;3.60;;;5.50;99.90;;;;;;5073304;28;20173;-85
2022/11/12 05:08:02;;;;;;;4.20;3.63;;;5.40;99.90;;;;;;5073114;28;20415;-89
2022/11/12 05:10:28;;;;;;;6.80;3.73;;;5.40;99.90;;;;;;5073066;28;20661;-85
2022/11/12 05:12:54;;;;;;;5.83;3.07;;;5.20;99.90;;;;;;5073079;28;20799;-85
2022/11/12 05:15:19;;;;;;;4.37;3.00;;;5.10;99.90;;;;;;5072702;28;20535;-89
2022/11/12 05:17:45;;;;;;;6.63;3.57;;;5.20;99.90;;;;;;5072894;28;20177;-89
2022/11/12 05:20:12;;;;;;;5.67;2.70;;;5.20;99.90;;;;;;5072840;28;20214;-89
2022/11/12 05:22:38;;;;;;;4.37;2.67;;;5.10;99.90;;;;;;5072814;28;20216;-83
2022/11/12 05:25:04;;;;;;;5.07;3.63;;;5.20;99.90;;;;;;5073320;28;20900;-90
2022/11/12 05:27:30;;;;;;;5.73;3.33;;;5.00;99.90;;;;;;5072973;28;20264;-89
2022/11/12 05:29:55;;;;;;;5.87;3.50;;;5.10;99.90;;;;;;5072603;28;20914;-85
2022/11/12 05:32:21;;;;;;;5.03;3.10;;;5.00;99.90;;;;;;5072820;28;20179;-85
2022/11/12 05:34:46;;;;;;;6.00;3.10;;;4.80;99.90;;;;;;5073103;28;20225;-89
2022/11/12 05:37:13;;;;;;;6.90;3.07;;;4.90;99.90;;;;;;5072522;28;20179;-86
2022/11/12 05:39:39;;;;;;;5.40;3.50;;;4.70;99.90;;;;;;5072482;28;20175;-87
2022/11/12 05:42:05;;;;;;;5.93;2.73;;;4.70;99.90;;;;;;5072377;28;20481;-87
2022/11/12 05:44:30;;;;;;;5.10;3.40;;;4.80;99.90;;;;;;5072519;28;20166;-88
2022/11/12 05:46:56;;;;;;;6.67;3.80;;;4.80;99.90;;;;;;5071910;28;20779;-88
2022/11/12 05:49:22;;;;;;;7.00;4.30;;;4.70;99.90;;;;;;5070384;28;20181;-87
2022/11/12 05:51:47;;;;;;;5.47;3.10;;;4.60;99.90;;;;;;5072097;28;20600;-89
2022/11/12 05:54:13;;;;;;;7.53;3.50;;;4.50;99.90;;;;;;5076339;28;20576;-83
2022/11/12 05:56:39;;;;;;;8.27;3.70;;;4.60;99.90;;;;;;5076090;28;20289;-87
2022/11/12 05:59:06;;;;;;;8.40;4.50;;;4.70;99.90;;;;;;5075741;28;20304;-87
2022/11/12 06:01:34;;;;;;;6.73;5.00;;;4.60;99.90;;;;;;5075712;28;20431;-87
2022/11/12 06:04:00;;;;;;;8.97;4.63;;;4.70;99.90;;;;;;5075944;28;20457;-85
2022/11/12 06:06:26;;;;;;;9.20;5.30;;;4.90;99.90;;;;;;5075717;28;20892;-86
2022/11/12 06:08:51;;;;;;;8.23;5.40;;;4.70;99.90;;;;;;5075172;28;20250;-84
2022/11/12 06:11:17;;;;;;;8.67;5.00;;;4.80;99.90;;;;;;5075604;28;20166;-85
2022/11/12 06:13:42;;;;;;;11.03;5.20;;;4.90;99.90;;;;;;5075130;28;20165;-85
2022/11/12 06:16:08;;;;;;;8.93;5.50;;;4.80;99.90;;;;;;5071225;28;20257;-83
2022/11/12 06:18:33;;;;;;;12.43;6.43;;;4.80;99.90;;;;;;5057714;28;20188;-87
2022/11/12 06:21:26;;;;;;;9.90;5.27;;;4.90;99.90;;;;;;5075441;28;20173;-85
2022/11/12 06:23:55;;;;;;;7.67;5.07;;;4.90;99.90;;;;;;5075741;28;20162;-87
2022/11/12 06:26:21;;;;;;;8.87;4.87;;;4.90;99.90;;;;;;5075611;28;20411;-86
2022/11/12 06:28:48;;;;;;;9.77;5.37;;;4.70;99.90;;;;;;5075665;28;20941;-83
2022/11/12 06:31:14;;;;;;;7.60;4.90;;;4.60;99.90;;;;;;5075751;28;20423;-86
2022/11/12 06:33:40;;;;;;;7.80;3.73;;;4.80;99.90;;;;;;5075693;28;20412;-83
2022/11/12 06:36:06;;;;;;;8.20;5.00;;;4.90;99.90;;;;;;5075501;28;20463;-87
2022/11/12 06:38:35;;;;;;;13.33;5.60;;;4.90;99.90;;;;;;5075178;28;20411;-84
2022/11/12 06:41:01;;;;;;;7.60;4.80;;;4.80;99.90;;;;;;5073443;28;20431;-83
2022/11/12 06:43:29;;;;;;;8.17;4.53;;;4.90;99.90;;;;;;5074943;28;20816;-82
2022/11/12 06:46:00;;;;;;;10.17;5.07;;;4.90;99.90;;;;;;5075047;28;20169;-83
2022/11/12 06:48:29;;;;;;;8.83;5.07;;;4.90;99.90;;;;;;5075172;28;20433;-82
2022/11/12 06:50:56;;;;;;;7.27;4.43;;;4.90;99.90;;;;;;5074129;28;20419;-83
2022/11/12 06:53:21;;;;;;;7.60;4.67;;;4.90;99.90;;;;;;5074734;28;20460;-82
2022/11/12 06:55:47;;;;;;;7.80;5.73;;;4.90;99.90;;;;;;5074305;28;20559;-88
2022/11/12 06:58:12;;;;;;;7.73;5.33;;;4.90;99.90;;;;;;5075189;28;20172;-89
2022/11/12 07:00:38;;;;;;;7.90;4.87;;;4.90;99.90;;;;;;5075039;28;20225;-87
2022/11/12 07:03:07;;;;;;;10.57;5.30;;;5.00;99.90;;;;;;5074574;28;20176;-83
2022/11/12 07:05:36;;;;;;;6.03;4.47;;;4.90;99.90;;;;;;5073875;28;20165;-88
2022/11/12 07:08:02;;;;;;;9.23;5.73;;;4.90;99.90;;;;;;5074864;28;20489;-88
2022/11/12 07:10:28;;;;;;;10.23;4.00;;;4.90;99.90;;;;;;5075269;28;20416;-89
2022/11/12 07:12:53;;;;;;;6.23;4.63;;;4.90;99.90;;;;;;5075090;28;20410;-84
2022/11/12 07:15:19;;;;;;;10.03;4.90;;;5.00;99.90;;;;;;5069409;28;20569;-89
2022/11/12 07:17:45;;;;;;;6.73;4.63;;;5.00;99.90;;;;;;5065715;28;20653;-86
2022/11/12 07:20:12;;;;;;;4.93;3.30;;;5.00;99.90;;;;;;5065972;28;20638;-86
2022/11/12 07:22:38;;;;;;;8.67;5.57;;;5.10;99.90;;;;;;5063583;28;20440;-88
2022/11/12 07:25:04;;;;;;;7.40;4.50;;;5.00;99.90;;;;;;5048295;28;20480;-87
2022/11/12 07:27:30;;;;;;;11.57;5.23;;;5.00;99.90;;;;;;5064737;28;20927;-86
2022/11/12 07:29:56;;;;;;;7.40;4.47;;;5.00;99.90;;;;;;5071587;28;20413;-87
2022/11/12 07:32:21;;;;;;;6.50;4.30;;;5.00;99.90;;;;;;5074606;28;20174;-88
2022/11/12 07:34:47;;;;;;;8.37;5.77;;;4.90;99.90;;;;;;5074463;28;20757;-88
2022/11/12 07:37:12;;;;;;;7.17;4.73;;;5.00;99.90;;;;;;5074355;28;20533;-84
2022/11/12 07:39:38;;;;;;;9.47;4.80;;;5.00;99.90;;;;;;5057202;28;20234;-84
2022/11/12 07:42:04;;;;;;;8.90;4.80;;;5.10;99.90;;;;;;5074392;28;20174;-88
2022/11/12 07:44:29;;;;;;;6.97;3.70;;;5.20;99.90;;;;;;5074299;28;20170;-85
2022/11/12 07:46:55;;;;;;;7.80;4.83;;;5.30;99.90;;;;;;5074387;28;20175;-88
2022/11/12 07:49:20;;;;;;;9.93;5.77;;;5.30;99.90;;;;;;5074155;28;20180;-85
2022/11/12 07:51:46;;;;;;;11.30;6.07;;;5.40;99.90;;;;;;5073966;28;20258;-88
2022/11/12 07:54:12;;;;;;;9.57;6.50;;;5.50;99.90;;;;;;5074364;28;20217;-83
2022/11/12 07:56:38;;;;;;;9.70;5.60;;;5.50;99.90;;;;;;5074084;28;20198;-84
2022/11/12 07:59:04;;;;;;;7.40;5.03;;;5.60;99.90;;;;;;5074078;28;21031;-84
2022/11/12 08:01:35;;;;;;;9.43;5.37;;;5.60;99.90;;;;;;5073991;28;20239;-84
2022/11/12 08:04:02;;;;;;;7.90;4.50;;;5.80;99.90;;;;;;5073857;28;20430;-84
2022/11/12 08:06:29;;;;;;;7.07;4.00;;;5.90;99.90;;;;;;5073258;28;20415;-84
2022/11/12 08:08:56;;;;;;;10.97;6.27;;;6.00;99.90;;;;;;5073664;28;20454;-84
2022/11/12 08:11:22;;;;;;;6.93;4.63;;;6.00;99.90;;;;;;5073623;28;20748;-84
2022/11/12 08:13:48;;;;;;;6.60;5.57;;;6.00;99.90;;;;;;5073515;28;20403;-82
2022/11/12 08:16:13;;;;;;;7.83;5.53;;;6.20;99.90;;;;;;5073049;28;20461;-83
2022/11/12 08:18:39;;;;;;;7.70;4.30;;;6.30;99.90;;;;;;5073493;28;20403;-83
2022/11/12 08:21:06;;;;;;;9.33;5.43;;;6.60;99.90;;;;;;5063661;28;20225;-84
2022/11/12 08:23:32;;;;;;;5.60;3.57;;;6.70;99.90;;;;;;5067865;28;20182;-85
2022/11/12 08:25:59;;;;;;;7.77;5.50;;;6.80;99.90;;;;;;5067161;28;20423;-84
2022/11/12 08:28:27;;;;;;;6.33;3.70;;;7.10;99.90;;;;;;5073383;28;20406;-85
2022/11/12 08:30:52;;;;;;;6.17;4.70;;;7.10;99.90;;;;;;5073255;28;20419;-85
2022/11/12 08:33:18;;;;;;;6.30;4.20;;;7.00;99.90;;;;;;5073430;28;20400;-86
2022/11/12 08:35:43;;;;;;;5.50;4.60;;;7.30;99.90;;;;;;5055299;28;20619;-85
2022/11/12 08:38:09;;;;;;;8.43;4.63;;;7.20;99.90;;;;;;5072974;28;20659;-85
2022/11/12 08:40:36;;;;;;;7.63;4.27;;;6.90;99.90;;;;;;5073133;28;20175;-84
2022/11/12 08:43:03;;;;;;;7.10;4.33;;;6.70;99.90;;;;;;5073019;28;20437;-85
2022/11/12 08:45:31;;;;;;;5.67;3.40;;;6.80;99.90;;;;;;5055179;28;20426;-85
2022/11/12 08:48:04;;;;;;;5.30;3.37;;;7.00;99.90;;;;;;5073272;28;20411;-85
2022/11/12 08:50:29;;;;;;;5.83;4.30;;;8.20;99.90;;;;;;5071844;28;20932;-84
2022/11/12 08:53:00;;;;;;;5.80;3.90;;;10.20;1.00;;;;;;5072680;28;20461;-83
2022/11/12 08:55:25;;;;;;;7.20;3.00;;;11.40;99.90;;;;;;5072949;28;20196;-83
2022/11/12 08:57:51;;;;;;;5.43;3.00;;;12.50;1.00;;;;;;5072997;28;20494;-85
2022/11/12 09:00:17;;;;;;;4.30;3.10;;;12.30;1.00;;;;;;5072776;28;20221;-86
2022/11/12 09:02:42;;;;;;;4.70;2.73;;;12.80;99.90;;;;;;5072849;28;20238;-86
2022/11/12 09:05:08;;;;;;;4.13;2.53;;;12.30;99.90;;;;;;5072822;28;20172;-85
2022/11/12 09:07:33;;;;;;;5.07;2.90;;;11.70;1.00;;;;;;5072671;28;20256;-85
2022/11/12 09:10:00;;;;;;;3.70;2.97;;;11.40;35.80;;;;;;5073114;28;20165;-85
2022/11/12 09:12:25;;;;;;;4.97;3.60;;;10.70;1.00;;;;;;5071338;28;20196;-84
2022/11/12 09:14:51;;;;;;;3.67;2.27;;;10.20;1.00;;;;;;5072753;28;20908;-83
2022/11/12 09:17:16;;;;;;;3.70;2.70;;;10.70;1.00;;;;;;5072706;28;20263;-83
2022/11/12 09:19:45;;;;;;;4.23;3.53;;;11.80;99.90;;;;;;5072880;28;20173;-84
2022/11/12 09:22:10;;;;;;;3.63;3.10;;;13.50;1.00;;;;;;5072463;28;20537;-83
2022/11/12 09:24:36;;;;;;;8.37;4.10;;;15.10;1.00;;;;;;5072885;28;20414;-84
2022/11/12 09:27:04;;;;;;;4.50;3.07;;;15.70;99.90;;;;;;5073154;28;20167;-83
2022/11/12 09:29:30;;;;;;;5.17;3.20;;;15.80;99.90;;;;;;5076697;28;20229;-83
2022/11/12 09:31:55;;;;;;;4.60;3.13;;;15.10;99.90;;;;;;5076700;28;20411;-83
2022/11/12 09:34:21;;;;;;;4.80;3.50;;;15.20;99.90;;;;;;5076618;28;20637;-84
2022/11/12 09:36:49;;;;;;;3.73;3.17;;;15.30;99.90;;;;;;5076063;28;20311;-83
2022/11/12 09:39:14;;;;;;;5.93;3.13;;;16.00;99.90;;;;;;5076494;28;20177;-83
2022/11/12 09:41:41;;;;;;;8.00;2.83;;;15.60;99.90;;;;;;5076566;28;20971;-84
2022/11/12 09:44:14;;;;;;;4.70;3.40;;;14.90;99.90;;;;;;5076604;28;20593;-86
2022/11/12 09:46:49;;;;;;;5.43;3.20;;;14.00;99.90;;;;;;5076241;28;20393;-85
2022/11/12 09:49:23;;;;;;;4.73;3.20;;;13.60;1.00;;;;;;5076144;28;20482;-85
2022/11/12 09:51:52;;;;;;;5.83;2.67;;;13.50;1.00;;;;;;5075932;28;20411;-85
2022/11/12 09:54:30;;;;;;;4.90;3.10;;;12.80;80.30;;;;;;5076223;28;20938;-83
2022/11/12 09:56:56;;;;;;;4.53;2.87;;;13.00;1.00;;;;;;5076161;28;20471;-84
2022/11/12 09:59:27;;;;;;;3.50;2.50;;;12.20;21.30;;;;;;5076077;28;20459;-84
2022/11/12 10:01:58;;;;;;;4.13;3.20;;;12.10;1.00;;;;;;5075974;28;20185;-84
2022/11/12 10:04:55;;;;;;;4.33;2.10;;;12.00;99.90;;;;;;5075884;28;20408;-84
2022/11/12 10:08:02;;;;;;;5.07;2.87;;;11.80;1.00;;;;;;5064316;28;20415;-85
2022/11/12 10:10:37;;;;;;;4.60;2.83;;;11.80;1.00;;;;;;5017484;28;20462;-84
2022/11/12 10:13:23;;;;;;;3.43;2.37;;;12.00;1.00;;;;;;5058485;28;20496;-85
2022/11/12 10:16:44;;;;;;;6.40;3.00;;;11.70;1.00;;;;;;5055832;28;20475;-84
2022/11/12 10:19:34;;;;;;;3.50;2.63;;;12.00;99.90;;;;;;5031046;28;20931;-85
2022/11/12 10:22:18;;;;;;;3.37;2.53;;;13.70;99.90;;;;;;5055440;28;20816;-85
2022/11/12 10:24:44;;;;;;;5.07;2.83;;;15.00;1.00;;;;;;5055732;28;20405;-85
2022/11/12 10:27:20;;;;;;;3.93;2.37;;;14.80;99.90;;;;;;5055730;28;20553;-83
2022/11/12 10:30:06;;;;;;;4.73;2.70;;;14.60;99.90;;;;;;5055558;28;20410;-86
2022/11/12 10:32:34;;;;;;;3.47;2.70;;;14.90;99.90;;;;;;5055489;28;20756;-84
2022/11/12 10:34:59;;;;;;;3.47;3.03;;;13.50;1.00;;;;;;5057305;28;20415;-84
2022/11/12 10:37:57;;;;;;;3.70;2.50;;;13.00;99.90;;;;;;5058170;28;20789;-84
2022/11/12 10:40:37;;;;;;;3.80;2.70;;;12.50;99.90;;;;;;5055489;28;20236;-84
2022/11/12 10:43:14;;;;;;;3.37;1.97;;;12.40;1.00;;;;;;5055325;28;20418;-84
2022/11/12 10:45:40;;;;;;;3.80;2.87;;;12.20;74.60;;;;;;5055381;28;20404;-85
2022/11/12 10:48:20;;;;;;;4.00;2.87;;;13.30;99.90;;;;;;5055252;28;20462;-85
2022/11/12 10:50:45;;;;;;;3.70;2.87;;;13.90;1.00;;;;;;5054781;28;20417;-85
2022/11/12 10:53:11;;;;;;;3.93;2.73;;;14.40;1.00;;;;;;5065428;28;20421;-84
2022/11/12 10:55:58;;;;;;;4.23;3.13;;;14.20;1.00;;;;;;5068942;28;20214;-86
2022/11/12 10:58:24;;;;;;;3.23;2.23;;;13.90;1.00;;;;;;5074382;28;20429;-86
2022/11/12 11:01:01;;;;;;;3.90;3.40;;;13.30;99.90;;;;;;5074792;28;21009;-85
2022/11/12 11:03:33;;;;;;;4.73;3.27;;;14.40;1.00;;;;;;5074936;28;20185;-84
2022/11/12 11:06:18;;;;;;;7.13;3.77;;;13.70;99.90;;;;;;5057158;28;20514;-86
2022/11/12 11:08:47;;;;;;;4.80;2.50;;;13.00;99.90;;;;;;5057371;28;20541;-86
2022/11/12 11:11:15;;;;;;;3.93;2.50;;;12.70;99.90;;;;;;5062816;28;20993;-87
2022/11/12 11:13:41;;;;;;;4.90;4.07;;;13.50;1.00;;;;;;5072876;28;20893;-84
2022/11/12 11:16:13;;;;;;;5.70;3.40;;;14.60;1.00;;;;;;5074686;28;20469;-87
2022/11/12 11:18:42;;;;;;;3.43;3.13;;;14.10;1.00;;;;;;5074770;28;20435;-85
2022/11/12 11:21:35;;;;;;;5.90;3.70;;;13.80;1.00;;;;;;5074380;28;20431;-84
2022/11/12 11:24:50;;;;;;;5.73;3.80;;;13.60;1.00;;;;;;5074603;28;20411;-85
2022/11/12 11:27:40;;;;;;;5.30;3.40;;;13.70;1.00;;;;;;5048145;28;20834;-88
2022/11/12 11:30:10;;;;;;;4.40;3.60;;;13.60;47.50;;;;;;5074352;28;20458;-84
2022/11/12 11:33:01;;;;;;;4.40;4.00;;;14.10;1.00;;;;;;5074426;28;20430;-86
2022/11/12 11:35:53;;;;;;;6.47;4.50;;;14.30;1.00;;;;;;5067910;28;20990;-86
2022/11/12 11:38:37;;;;;;;6.67;4.23;;;14.00;1.00;;;;;;5074300;28;20399;-85
2022/11/12 11:41:37;;;;;;;7.90;4.40;;;13.80;1.00;;;;;;5074225;28;20415;-86
2022/11/12 11:44:18;;;;;;;7.27;5.33;;;13.40;1.00;;;;;;5064665;28;20812;-86
2022/11/12 11:46:57;;;;;;;8.07;3.90;;;13.30;99.90;;;;;;5056784;28;20512;-85
2022/11/12 11:49:39;;;;;;;4.70;3.60;;;13.30;1.00;;;;;;5053830;28;20410;-84
2022/11/12 11:52:33;;;;;;;6.30;3.73;;;13.30;99.90;;;;;;5053441;28;20472;-84
2022/11/12 11:55:26;;;;;;;5.97;3.97;;;13.40;1.00;;;;;;5053883;28;20497;-84
2022/11/12 11:58:05;;;;;;;4.80;3.77;;;13.40;1.00;;;;;;5054347;28;20827;-85
2022/11/12 12:01:01;;;;;;;6.23;4.50;;;13.20;99.90;;;;;;5053768;28;20457;-84
2022/11/12 12:04:01;;;;;;;9.07;4.00;;;13.40;42.70;;;;;;5045555;28;20454;-84
2022/11/12 12:06:30;;;;;;;6.27;3.93;;;13.30;1.00;;;;;;5053514;28;20750;-84
2022/11/12 12:09:03;;;;;;;8.23;4.10;;;13.10;99.90;;;;;;5053763;28;20436;-84
2022/11/12 12:11:44;;;;;;;5.93;4.00;;;13.30;1.00;;;;;;5053852;28;20468;-85
2022/11/12 12:14:26;;;;;;;4.50;3.10;;;13.20;99.90;;;;;;5052393;28;20904;-83
2022/11/12 12:17:01;;;;;;;5.13;3.57;;;13.10;99.90;;;;;;5057773;28;20534;-83
2022/11/12 12:19:46;;;;;;;6.33;3.93;;;13.20;99.90;;;;;;5073384;28;20932;-84
2022/11/12 12:22:22;;;;;;;4.80;3.90;;;13.20;31.40;;;;;;5071272;28;20436;-84
2022/11/12 12:25:00;;;;;;;8.73;4.07;;;13.10;1.00;;;;;;5073454;28;20506;-83
2022/11/12 12:27:36;;;;;;;7.20;4.37;;;12.90;29.80;;;;;;5073304;28;20489;-84
2022/11/12 12:30:12;;;;;;;8.20;4.53;;;12.90;99.90;;;;;;5067460;28;20500;-84
2022/11/12 12:32:44;;;;;;;5.90;3.77;;;12.80;99.90;;;;;;5057075;28;20493;-84
2022/11/12 12:35:36;;;;;;;6.33;4.17;;;13.00;99.90;;;;;;5053081;28;20459;-84
2022/11/12 12:38:30;;;;;;;7.20;4.10;;;13.00;1.00;;;;;;5053334;28;20454;-84
2022/11/12 12:41:10;;;;;;;7.13;4.70;;;13.10;1.00;;;;;;5058165;28;20418;-84
2022/11/12 12:43:47;;;;;;;11.00;4.53;;;13.30;1.00;;;;;;5053094;28;20390;-84
2022/11/12 12:46:17;;;;;;;5.50;4.07;;;13.30;1.00;;;;;;5064178;28;20429;-84
2022/11/12 12:48:45;;;;;;;6.70;3.93;;;13.50;37.00;;;;;;5073140;28;20406;-84
2022/11/12 12:51:10;;;;;;;8.17;4.50;;;13.30;99.90;;;;;;5066501;28;20925;-84
2022/11/12 12:53:36;;;;;;;6.77;4.60;;;13.20;99.90;;;;;;5072988;28;20392;-84
2022/11/12 12:56:29;;;;;;;6.53;4.20;;;13.10;18.80;;;;;;5072990;28;20348;-83
2022/11/12 12:58:56;;;;;;;5.83;4.90;;;13.10;1.00;;;;;;5072831;28;20793;-83
2022/11/12 13:01:22;;;;;;;9.00;4.30;;;13.10;20.20;;;;;;5072959;28;20417;-85
2022/11/12 13:04:02;;;;;;;8.50;5.60;;;12.90;99.90;;;;;;5072966;28;20420;-85
2022/11/12 13:06:39;;;;;;;8.63;4.97;;;12.70;1.00;;;;;;5072439;28;20175;-85
2022/11/12 13:09:13;;;;;;;9.87;5.93;;;12.70;99.90;;;;;;5072867;28;20928;-85
2022/11/12 13:14:35;;;;;;;7.83;3.63;;;12.50;1.00;;;;;;5071671;28;20966;-84
2022/11/12 13:17:02;;;;;;;6.90;4.10;;;12.60;99.90;;;;;;5072004;28;20553;-84
2022/11/12 13:19:35;;;;;;;10.73;5.10;;;12.50;1.00;;;;;;5071846;28;20424;-84
2022/11/12 13:22:16;;;;;;;7.83;4.17;;;12.40;1.00;;;;;;5071867;28;20884;-84
2022/11/12 13:25:00;;;;;;;5.93;3.70;;;12.30;1.00;;;;;;5072080;28;20435;-83
2022/11/12 13:27:38;;;;;;;8.27;4.50;;;12.10;13.80;;;;;;5072033;28;20412;-84
2022/11/12 13:30:07;;;;;;;9.57;4.47;;;12.00;1.00;;;;;;5072717;28;20447;-85
2022/11/12 13:32:34;;;;;;;10.10;5.13;;;12.20;1.00;;;;;;5072627;28;20435;-84